METAR AND TAF INFORMATION
METAR FOR PACV
PACV 270653Z 05010G28KT 5SM OVC030 A2943 RMK AO2 SNE0555 SLPNO PNO
PACV 270553Z 05010G20KT 5SM -SN OVC030 A2948 RMK AO2 SLPNO 4/007 6//// 58047 PNO
PACV 270453Z 05010G18KT 7SM -SN OVC030 A2953 RMK AO2 SLPNO PNO
PACV 270520Z 2706/2806 05010G18KT P6SM -SN OVC030
FM271200 08014G28KT 4SM -SN OVC025
FM272300 05007G20KT P6SM OVC100

 AIRPORT MAP

 RUNWAY INFORMATION
Runway 09 Runway length 7500 ft Runway width 150 ft
Runway elevation 36 ft Runway displaced threshold 0 ft Runway heading 114
Runway 27 Runway length 7500 ft Runway width 150 ft
Runway elevation 37 ft Runway displaced threshold 0 ft Runway heading 294
Runway 16 Runway length 1899 ft Runway width 30 ft
Runway elevation 46 ft Runway displaced threshold 0 ft Runway heading 181
Runway 34 Runway length 1899 ft Runway width 30 ft
Runway elevation 35 ft Runway displaced threshold 0 ft Runway heading 1

 AIRPORT FREQUENCIES
Type A/D Name ANCHORAGE Frequency 133.6 MHZ
Type ASOS Name ASOS Frequency 134.8 MHZ
Type CTAF Name CTAF Frequency 123.6 MHZ
Type FSS Name JUNEAU RDO Frequency 122.2 MHZ

 AIRPORT NEAR NAVIGATION AIDS
Type NDB Name Glacier River Frequency 404 KHZ

-